sensor_id;sensor_type;location;lat;lon;timestamp;temperature;humidity
42245;DHT22;27912;51.828;5.688;2022-08-03T00:01:40;19.00;99.90
42245;DHT22;27912;51.828;5.688;2022-08-03T00:04:07;19.00;99.90
42245;DHT22;27912;51.828;5.688;2022-08-03T00:06:33;19.00;99.90
42245;DHT22;27912;51.828;5.688;2022-08-03T00:08:59;18.90;99.90
42245;DHT22;27912;51.828;5.688;2022-08-03T00:11:24;18.90;99.90
42245;DHT22;27912;51.828;5.688;2022-08-03T00:13:50;18.90;99.90
42245;DHT22;27912;51.828;5.688;2022-08-03T00:16:16;18.90;99.90
42245;DHT22;27912;51.828;5.688;2022-08-03T00:18:42;18.80;99.90
42245;DHT22;27912;51.828;5.688;2022-08-03T00:21:07;18.70;99.90
42245;DHT22;27912;51.828;5.688;2022-08-03T00:23:33;18.80;99.90
42245;DHT22;27912;51.828;5.688;2022-08-03T00:25:59;18.70;99.90
42245;DHT22;27912;51.828;5.688;2022-08-03T00:28:25;18.70;99.90
42245;DHT22;27912;51.828;5.688;2022-08-03T00:30:50;18.70;99.90
42245;DHT22;27912;51.828;5.688;2022-08-03T00:33:16;18.60;99.90
42245;DHT22;27912;51.828;5.688;2022-08-03T00:35:41;18.70;99.90
42245;DHT22;27912;51.828;5.688;2022-08-03T00:38:07;18.60;99.90
42245;DHT22;27912;51.828;5.688;2022-08-03T00:40:33;18.60;99.90
42245;DHT22;27912;51.828;5.688;2022-08-03T00:43:01;18.60;99.90
42245;DHT22;27912;51.828;5.688;2022-08-03T00:45:31;18.60;99.90
42245;DHT22;27912;51.828;5.688;2022-08-03T00:47:58;18.60;99.90
42245;DHT22;27912;51.828;5.688;2022-08-03T00:50:25;18.60;99.90
42245;DHT22;27912;51.828;5.688;2022-08-03T00:52:53;18.60;99.90
42245;DHT22;27912;51.828;5.688;2022-08-03T00:55:19;18.50;99.90
42245;DHT22;27912;51.828;5.688;2022-08-03T00:57:45;18.50;99.90
42245;DHT22;27912;51.828;5.688;2022-08-03T01:00:12;18.40;99.90
42245;DHT22;27912;51.828;5.688;2022-08-03T01:02:39;18.40;99.90
42245;DHT22;27912;51.828;5.688;2022-08-03T01:05:05;18.40;99.90
42245;DHT22;27912;51.828;5.688;2022-08-03T01:07:43;18.30;99.90
42245;DHT22;27912;51.828;5.688;2022-08-03T01:16:00;18.30;99.90
42245;DHT22;27912;51.828;5.688;2022-08-03T01:18:40;18.30;99.90
42245;DHT22;27912;51.828;5.688;2022-08-03T01:21:17;18.30;99.90
42245;DHT22;27912;51.828;5.688;2022-08-03T01:23:58;18.30;99.90
42245;DHT22;27912;51.828;5.688;2022-08-03T01:27:08;18.30;99.90
42245;DHT22;27912;51.828;5.688;2022-08-03T01:29:49;18.30;99.90
42245;DHT22;27912;51.828;5.688;2022-08-03T01:32:30;18.20;99.90
42245;DHT22;27912;51.828;5.688;2022-08-03T01:35:01;18.30;99.90
42245;DHT22;27912;51.828;5.688;2022-08-03T01:37:44;18.20;99.90
42245;DHT22;27912;51.828;5.688;2022-08-03T01:40:13;18.20;99.90
42245;DHT22;27912;51.828;5.688;2022-08-03T01:42:40;18.20;99.90
42245;DHT22;27912;51.828;5.688;2022-08-03T01:45:08;18.20;99.90
42245;DHT22;27912;51.828;5.688;2022-08-03T01:47:35;18.20;99.90
42245;DHT22;27912;51.828;5.688;2022-08-03T01:50:02;18.20;99.90
42245;DHT22;27912;51.828;5.688;2022-08-03T01:52:29;18.20;99.90
42245;DHT22;27912;51.828;5.688;2022-08-03T01:54:57;18.30;99.90
42245;DHT22;27912;51.828;5.688;2022-08-03T01:57:24;18.20;99.90
42245;DHT22;27912;51.828;5.688;2022-08-03T01:59:55;18.20;99.90
42245;DHT22;27912;51.828;5.688;2022-08-03T02:02:21;18.20;99.90
42245;DHT22;27912;51.828;5.688;2022-08-03T02:04:49;18.20;99.90
42245;DHT22;27912;51.828;5.688;2022-08-03T02:07:17;18.20;99.90
42245;DHT22;27912;51.828;5.688;2022-08-03T02:09:45;18.20;99.90
42245;DHT22;27912;51.828;5.688;2022-08-03T02:12:12;18.10;99.90
42245;DHT22;27912;51.828;5.688;2022-08-03T02:14:40;18.20;99.90
42245;DHT22;27912;51.828;5.688;2022-08-03T02:17:09;18.10;99.90
42245;DHT22;27912;51.828;5.688;2022-08-03T02:19:35;18.10;99.90
42245;DHT22;27912;51.828;5.688;2022-08-03T02:22:01;18.10;99.90
42245;DHT22;27912;51.828;5.688;2022-08-03T02:24:28;18.20;99.90
42245;DHT22;27912;51.828;5.688;2022-08-03T02:26:55;18.10;99.90
42245;DHT22;27912;51.828;5.688;2022-08-03T02:29:23;18.20;99.90
42245;DHT22;27912;51.828;5.688;2022-08-03T02:31:50;18.20;99.90
42245;DHT22;27912;51.828;5.688;2022-08-03T02:34:17;18.10;99.90
42245;DHT22;27912;51.828;5.688;2022-08-03T02:36:49;18.10;99.90
42245;DHT22;27912;51.828;5.688;2022-08-03T02:39:19;18.10;99.90
42245;DHT22;27912;51.828;5.688;2022-08-03T02:41:48;18.10;99.90
42245;DHT22;27912;51.828;5.688;2022-08-03T02:44:17;18.10;99.90
42245;DHT22;27912;51.828;5.688;2022-08-03T02:46:46;18.10;99.90
42245;DHT22;27912;51.828;5.688;2022-08-03T02:49:15;18.10;99.90
42245;DHT22;27912;51.828;5.688;2022-08-03T02:51:44;18.10;99.90
42245;DHT22;27912;51.828;5.688;2022-08-03T02:54:14;18.00;99.90
42245;DHT22;27912;51.828;5.688;2022-08-03T02:56:44;18.10;99.90
42245;DHT22;27912;51.828;5.688;2022-08-03T02:59:11;18.10;99.90
42245;DHT22;27912;51.828;5.688;2022-08-03T03:01:38;18.10;99.90
42245;DHT22;27912;51.828;5.688;2022-08-03T03:04:04;18.10;99.90
42245;DHT22;27912;51.828;5.688;2022-08-03T03:06:30;18.00;99.90
42245;DHT22;27912;51.828;5.688;2022-08-03T03:08:57;18.00;99.90
42245;DHT22;27912;51.828;5.688;2022-08-03T03:11:24;18.00;99.90
42245;DHT22;27912;51.828;5.688;2022-08-03T03:13:50;18.00;99.90
42245;DHT22;27912;51.828;5.688;2022-08-03T03:16:17;18.00;99.90
42245;DHT22;27912;51.828;5.688;2022-08-03T03:18:44;18.00;99.90
42245;DHT22;27912;51.828;5.688;2022-08-03T03:21:12;18.00;99.90
42245;DHT22;27912;51.828;5.688;2022-08-03T03:23:40;18.00;99.90
42245;DHT22;27912;51.828;5.688;2022-08-03T03:26:07;17.90;99.90
42245;DHT22;27912;51.828;5.688;2022-08-03T03:28:33;17.90;99.90
42245;DHT22;27912;51.828;5.688;2022-08-03T03:31:02;17.90;99.90
42245;DHT22;27912;51.828;5.688;2022-08-03T03:33:28;17.90;99.90
42245;DHT22;27912;51.828;5.688;2022-08-03T03:35:54;17.80;99.90
42245;DHT22;27912;51.828;5.688;2022-08-03T03:38:20;17.80;99.90
42245;DHT22;27912;51.828;5.688;2022-08-03T03:40:47;17.80;99.90
42245;DHT22;27912;51.828;5.688;2022-08-03T03:43:13;17.80;99.90
42245;DHT22;27912;51.828;5.688;2022-08-03T03:45:42;17.80;99.90
42245;DHT22;27912;51.828;5.688;2022-08-03T03:48:08;17.80;99.90
42245;DHT22;27912;51.828;5.688;2022-08-03T03:50:34;17.80;99.90
42245;DHT22;27912;51.828;5.688;2022-08-03T03:53:02;17.90;99.90
42245;DHT22;27912;51.828;5.688;2022-08-03T03:55:28;17.90;99.90
42245;DHT22;27912;51.828;5.688;2022-08-03T03:57:54;17.90;99.90
42245;DHT22;27912;51.828;5.688;2022-08-03T04:00:19;18.00;99.90
42245;DHT22;27912;51.828;5.688;2022-08-03T04:02:45;18.00;99.90
42245;DHT22;27912;51.828;5.688;2022-08-03T04:05:11;18.00;99.90
42245;DHT22;27912;51.828;5.688;2022-08-03T04:08:16;18.00;99.90
42245;DHT22;27912;51.828;5.688;2022-08-03T04:11:27;18.00;99.90
42245;DHT22;27912;51.828;5.688;2022-08-03T04:14:02;18.00;99.90
42245;DHT22;27912;51.828;5.688;2022-08-03T04:16:33;18.00;99.90
42245;DHT22;27912;51.828;5.688;2022-08-03T04:19:06;18.00;99.90
42245;DHT22;27912;51.828;5.688;2022-08-03T04:21:36;18.00;99.90
42245;DHT22;27912;51.828;5.688;2022-08-03T04:24:03;18.00;99.90
42245;DHT22;27912;51.828;5.688;2022-08-03T04:26:35;18.00;99.90
42245;DHT22;27912;51.828;5.688;2022-08-03T04:29:04;18.00;99.90
42245;DHT22;27912;51.828;5.688;2022-08-03T04:31:30;18.00;99.90
42245;DHT22;27912;51.828;5.688;2022-08-03T04:33:57;18.00;99.90
42245;DHT22;27912;51.828;5.688;2022-08-03T04:36:25;18.00;99.90
42245;DHT22;27912;51.828;5.688;2022-08-03T04:41:44;18.10;99.90
42245;DHT22;27912;51.828;5.688;2022-08-03T04:44:13;18.10;99.90
42245;DHT22;27912;51.828;5.688;2022-08-03T04:46:40;18.10;99.90
42245;DHT22;27912;51.828;5.688;2022-08-03T04:49:06;18.20;99.90
42245;DHT22;27912;51.828;5.688;2022-08-03T04:51:32;18.20;99.90
42245;DHT22;27912;51.828;5.688;2022-08-03T04:53:59;18.20;99.90
42245;DHT22;27912;51.828;5.688;2022-08-03T04:56:25;18.30;99.90
42245;DHT22;27912;51.828;5.688;2022-08-03T04:58:51;18.30;99.90
42245;DHT22;27912;51.828;5.688;2022-08-03T05:01:17;18.40;99.90
42245;DHT22;27912;51.828;5.688;2022-08-03T05:03:45;18.40;99.90
42245;DHT22;27912;51.828;5.688;2022-08-03T05:06:10;18.40;99.90
42245;DHT22;27912;51.828;5.688;2022-08-03T05:08:36;18.50;99.90
42245;DHT22;27912;51.828;5.688;2022-08-03T05:11:02;18.50;99.90
42245;DHT22;27912;51.828;5.688;2022-08-03T05:13:27;18.50;99.90
42245;DHT22;27912;51.828;5.688;2022-08-03T05:15:53;18.50;99.90
42245;DHT22;27912;51.828;5.688;2022-08-03T05:18:18;18.60;99.90
42245;DHT22;27912;51.828;5.688;2022-08-03T05:20:44;18.60;99.90
42245;DHT22;27912;51.828;5.688;2022-08-03T05:23:09;18.70;99.90
42245;DHT22;27912;51.828;5.688;2022-08-03T05:25:35;18.80;99.90
42245;DHT22;27912;51.828;5.688;2022-08-03T05:28:00;18.90;99.90
42245;DHT22;27912;51.828;5.688;2022-08-03T05:30:26;18.90;99.90
42245;DHT22;27912;51.828;5.688;2022-08-03T05:32:52;19.10;99.90
42245;DHT22;27912;51.828;5.688;2022-08-03T05:35:17;19.20;99.90
42245;DHT22;27912;51.828;5.688;2022-08-03T05:37:43;19.40;99.90
42245;DHT22;27912;51.828;5.688;2022-08-03T05:40:09;19.60;99.90
42245;DHT22;27912;51.828;5.688;2022-08-03T05:42:36;19.80;99.90
42245;DHT22;27912;51.828;5.688;2022-08-03T05:45:05;20.10;99.90
42245;DHT22;27912;51.828;5.688;2022-08-03T05:47:40;20.30;99.90
42245;DHT22;27912;51.828;5.688;2022-08-03T05:50:11;20.40;99.90
42245;DHT22;27912;51.828;5.688;2022-08-03T05:52:37;20.60;99.90
42245;DHT22;27912;51.828;5.688;2022-08-03T05:55:05;20.60;99.90
42245;DHT22;27912;51.828;5.688;2022-08-03T05:57:31;20.70;99.90
42245;DHT22;27912;51.828;5.688;2022-08-03T05:59:56;20.70;99.90
42245;DHT22;27912;51.828;5.688;2022-08-03T06:02:22;20.80;99.90
42245;DHT22;27912;51.828;5.688;2022-08-03T06:04:48;20.80;99.90
42245;DHT22;27912;51.828;5.688;2022-08-03T06:07:13;20.90;99.90
42245;DHT22;27912;51.828;5.688;2022-08-03T06:09:39;21.00;99.90
42245;DHT22;27912;51.828;5.688;2022-08-03T06:12:06;21.10;99.90
42245;DHT22;27912;51.828;5.688;2022-08-03T06:14:31;21.20;99.90
42245;DHT22;27912;51.828;5.688;2022-08-03T06:16:57;21.30;99.90
42245;DHT22;27912;51.828;5.688;2022-08-03T06:19:22;21.40;99.90
42245;DHT22;27912;51.828;5.688;2022-08-03T06:21:48;21.40;99.90
42245;DHT22;27912;51.828;5.688;2022-08-03T06:24:14;21.50;99.90
42245;DHT22;27912;51.828;5.688;2022-08-03T06:26:40;21.50;99.90
42245;DHT22;27912;51.828;5.688;2022-08-03T06:29:06;21.50;99.90
42245;DHT22;27912;51.828;5.688;2022-08-03T06:31:31;21.60;99.90
42245;DHT22;27912;51.828;5.688;2022-08-03T06:33:57;21.70;99.90
42245;DHT22;27912;51.828;5.688;2022-08-03T06:36:23;21.80;99.90
42245;DHT22;27912;51.828;5.688;2022-08-03T06:38:50;21.90;99.90
42245;DHT22;27912;51.828;5.688;2022-08-03T06:41:15;21.90;99.90
42245;DHT22;27912;51.828;5.688;2022-08-03T06:43:41;22.00;99.90
42245;DHT22;27912;51.828;5.688;2022-08-03T06:46:06;22.10;99.90
42245;DHT22;27912;51.828;5.688;2022-08-03T06:48:32;22.20;99.90
42245;DHT22;27912;51.828;5.688;2022-08-03T06:50:58;22.30;99.90
42245;DHT22;27912;51.828;5.688;2022-08-03T06:53:25;22.30;99.90
42245;DHT22;27912;51.828;5.688;2022-08-03T06:55:51;22.50;99.90
42245;DHT22;27912;51.828;5.688;2022-08-03T06:58:17;22.60;99.90
42245;DHT22;27912;51.828;5.688;2022-08-03T07:00:42;22.70;99.90
42245;DHT22;27912;51.828;5.688;2022-08-03T07:03:08;22.70;99.90
42245;DHT22;27912;51.828;5.688;2022-08-03T07:05:33;22.90;99.90
42245;DHT22;27912;51.828;5.688;2022-08-03T07:07:59;22.90;99.90
42245;DHT22;27912;51.828;5.688;2022-08-03T07:10:26;23.00;99.90
42245;DHT22;27912;51.828;5.688;2022-08-03T07:12:52;23.00;99.90
42245;DHT22;27912;51.828;5.688;2022-08-03T07:15:18;23.10;99.90
42245;DHT22;27912;51.828;5.688;2022-08-03T07:17:44;23.20;99.90
42245;DHT22;27912;51.828;5.688;2022-08-03T07:20:10;23.20;99.90
42245;DHT22;27912;51.828;5.688;2022-08-03T07:22:35;23.30;99.90
42245;DHT22;27912;51.828;5.688;2022-08-03T07:25:01;23.30;99.90
42245;DHT22;27912;51.828;5.688;2022-08-03T07:27:27;23.30;99.90
42245;DHT22;27912;51.828;5.688;2022-08-03T07:29:54;23.40;99.90
42245;DHT22;27912;51.828;5.688;2022-08-03T07:32:23;23.50;99.90
42245;DHT22;27912;51.828;5.688;2022-08-03T07:34:49;23.50;99.90
42245;DHT22;27912;51.828;5.688;2022-08-03T07:37:15;23.50;99.90
42245;DHT22;27912;51.828;5.688;2022-08-03T07:39:41;23.60;99.90
42245;DHT22;27912;51.828;5.688;2022-08-03T07:42:06;23.70;99.90
42245;DHT22;27912;51.828;5.688;2022-08-03T07:44:32;23.70;99.90
42245;DHT22;27912;51.828;5.688;2022-08-03T07:46:57;23.80;99.90
42245;DHT22;27912;51.828;5.688;2022-08-03T07:49:23;23.80;99.90
42245;DHT22;27912;51.828;5.688;2022-08-03T07:51:49;23.90;99.90
42245;DHT22;27912;51.828;5.688;2022-08-03T07:54:34;23.90;99.90
42245;DHT22;27912;51.828;5.688;2022-08-03T07:57:00;24.00;99.90
42245;DHT22;27912;51.828;5.688;2022-08-03T07:59:25;24.10;99.90
42245;DHT22;27912;51.828;5.688;2022-08-03T08:01:51;24.10;99.90
42245;DHT22;27912;51.828;5.688;2022-08-03T08:04:18;24.20;99.90
42245;DHT22;27912;51.828;5.688;2022-08-03T08:06:45;24.20;99.90
42245;DHT22;27912;51.828;5.688;2022-08-03T08:09:10;24.20;99.90
42245;DHT22;27912;51.828;5.688;2022-08-03T08:11:36;24.20;99.90
42245;DHT22;27912;51.828;5.688;2022-08-03T08:14:02;24.30;99.90
42245;DHT22;27912;51.828;5.688;2022-08-03T08:16:29;24.50;99.90
42245;DHT22;27912;51.828;5.688;2022-08-03T08:18:54;24.60;99.90
42245;DHT22;27912;51.828;5.688;2022-08-03T08:21:20;24.60;99.90
42245;DHT22;27912;51.828;5.688;2022-08-03T08:23:45;24.70;99.90
42245;DHT22;27912;51.828;5.688;2022-08-03T08:26:11;24.70;99.90
42245;DHT22;27912;51.828;5.688;2022-08-03T08:28:37;24.80;99.90
42245;DHT22;27912;51.828;5.688;2022-08-03T08:31:02;24.80;99.90
42245;DHT22;27912;51.828;5.688;2022-08-03T08:33:28;24.90;99.90
42245;DHT22;27912;51.828;5.688;2022-08-03T08:35:53;25.00;99.90
42245;DHT22;27912;51.828;5.688;2022-08-03T08:38:20;25.20;99.90
42245;DHT22;27912;51.828;5.688;2022-08-03T08:40:45;25.30;99.60
42245;DHT22;27912;51.828;5.688;2022-08-03T08:43:11;25.30;99.40
42245;DHT22;27912;51.828;5.688;2022-08-03T08:45:37;25.40;99.30
42245;DHT22;27912;51.828;5.688;2022-08-03T08:48:05;25.50;99.10
42245;DHT22;27912;51.828;5.688;2022-08-03T08:50:32;25.70;99.00
42245;DHT22;27912;51.828;5.688;2022-08-03T08:53:01;25.80;98.60
42245;DHT22;27912;51.828;5.688;2022-08-03T08:55:28;25.90;98.40
42245;DHT22;27912;51.828;5.688;2022-08-03T08:58:01;26.00;98.20
42245;DHT22;27912;51.828;5.688;2022-08-03T09:00:29;26.20;97.90
42245;DHT22;27912;51.828;5.688;2022-08-03T09:02:55;26.30;97.60
42245;DHT22;27912;51.828;5.688;2022-08-03T09:05:22;26.30;97.10
42245;DHT22;27912;51.828;5.688;2022-08-03T09:07:48;26.30;96.90
42245;DHT22;27912;51.828;5.688;2022-08-03T09:10:16;26.30;96.60
42245;DHT22;27912;51.828;5.688;2022-08-03T09:12:48;26.50;96.50
42245;DHT22;27912;51.828;5.688;2022-08-03T09:15:25;26.50;96.10
42245;DHT22;27912;51.828;5.688;2022-08-03T09:17:56;26.60;95.80
42245;DHT22;27912;51.828;5.688;2022-08-03T09:20:23;26.70;95.60
42245;DHT22;27912;51.828;5.688;2022-08-03T09:22:56;26.80;95.30
42245;DHT22;27912;51.828;5.688;2022-08-03T09:25:39;26.80;95.00
42245;DHT22;27912;51.828;5.688;2022-08-03T09:28:12;26.70;95.00
42245;DHT22;27912;51.828;5.688;2022-08-03T09:30:43;26.80;94.80
42245;DHT22;27912;51.828;5.688;2022-08-03T09:33:13;26.90;94.70
42245;DHT22;27912;51.828;5.688;2022-08-03T09:35:42;26.90;94.50
42245;DHT22;27912;51.828;5.688;2022-08-03T09:38:10;26.90;94.60
42245;DHT22;27912;51.828;5.688;2022-08-03T09:40:36;26.90;94.60
42245;DHT22;27912;51.828;5.688;2022-08-03T09:43:01;27.00;94.50
42245;DHT22;27912;51.828;5.688;2022-08-03T09:45:27;27.10;94.20
42245;DHT22;27912;51.828;5.688;2022-08-03T09:47:54;27.20;93.90
42245;DHT22;27912;51.828;5.688;2022-08-03T09:50:21;27.40;93.50
42245;DHT22;27912;51.828;5.688;2022-08-03T09:52:46;27.50;93.30
42245;DHT22;27912;51.828;5.688;2022-08-03T09:55:15;27.60;92.90
42245;DHT22;27912;51.828;5.688;2022-08-03T09:57:41;27.60;92.50
42245;DHT22;27912;51.828;5.688;2022-08-03T10:00:13;27.50;92.50
42245;DHT22;27912;51.828;5.688;2022-08-03T10:02:43;27.50;92.40
42245;DHT22;27912;51.828;5.688;2022-08-03T10:05:11;27.50;92.30
42245;DHT22;27912;51.828;5.688;2022-08-03T10:07:44;27.50;92.20
42245;DHT22;27912;51.828;5.688;2022-08-03T10:10:11;27.50;92.10
42245;DHT22;27912;51.828;5.688;2022-08-03T10:12:37;27.50;92.00
42245;DHT22;27912;51.828;5.688;2022-08-03T10:15:04;27.60;91.90
42245;DHT22;27912;51.828;5.688;2022-08-03T10:17:30;27.70;91.60
42245;DHT22;27912;51.828;5.688;2022-08-03T10:19:55;27.90;91.20
42245;DHT22;27912;51.828;5.688;2022-08-03T10:22:26;28.00;91.00
42245;DHT22;27912;51.828;5.688;2022-08-03T10:24:55;28.10;90.20
42245;DHT22;27912;51.828;5.688;2022-08-03T10:27:25;28.20;89.90
42245;DHT22;27912;51.828;5.688;2022-08-03T10:29:54;28.30;88.50
42245;DHT22;27912;51.828;5.688;2022-08-03T10:32:27;28.30;87.70
42245;DHT22;27912;51.828;5.688;2022-08-03T10:35:07;28.40;87.90
42245;DHT22;27912;51.828;5.688;2022-08-03T10:37:44;28.50;86.40
42245;DHT22;27912;51.828;5.688;2022-08-03T10:40:15;28.60;85.40
42245;DHT22;27912;51.828;5.688;2022-08-03T10:42:45;28.60;85.30
42245;DHT22;27912;51.828;5.688;2022-08-03T10:45:19;28.70;85.30
42245;DHT22;27912;51.828;5.688;2022-08-03T10:47:50;28.80;84.80
42245;DHT22;27912;51.828;5.688;2022-08-03T10:50:17;28.90;85.20
42245;DHT22;27912;51.828;5.688;2022-08-03T10:53:04;29.00;85.50
42245;DHT22;27912;51.828;5.688;2022-08-03T10:55:33;29.20;83.70
42245;DHT22;27912;51.828;5.688;2022-08-03T11:01:06;29.30;82.10
42245;DHT22;27912;51.828;5.688;2022-08-03T11:03:32;29.30;81.10
42245;DHT22;27912;51.828;5.688;2022-08-03T11:06:30;29.40;80.40
42245;DHT22;27912;51.828;5.688;2022-08-03T11:09:22;29.50;80.00
42245;DHT22;27912;51.828;5.688;2022-08-03T11:11:48;29.50;78.70
42245;DHT22;27912;51.828;5.688;2022-08-03T11:14:20;29.50;79.10
42245;DHT22;27912;51.828;5.688;2022-08-03T11:16:48;29.50;78.50
42245;DHT22;27912;51.828;5.688;2022-08-03T11:19:20;29.60;78.00
42245;DHT22;27912;51.828;5.688;2022-08-03T11:21:53;29.60;77.00
42245;DHT22;27912;51.828;5.688;2022-08-03T11:27:17;29.80;75.90
42245;DHT22;27912;51.828;5.688;2022-08-03T11:35:19;30.10;74.30
42245;DHT22;27912;51.828;5.688;2022-08-03T11:48:20;30.10;71.50
42245;DHT22;27912;51.828;5.688;2022-08-03T11:50:48;30.10;71.60
42245;DHT22;27912;51.828;5.688;2022-08-03T11:53:17;30.10;72.10
42245;DHT22;27912;51.828;5.688;2022-08-03T11:55:45;30.30;70.50
42245;DHT22;27912;51.828;5.688;2022-08-03T11:58:20;30.40;69.70
42245;DHT22;27912;51.828;5.688;2022-08-03T12:00:48;30.40;69.60
42245;DHT22;27912;51.828;5.688;2022-08-03T12:03:17;30.40;69.50
42245;DHT22;27912;51.828;5.688;2022-08-03T12:05:51;30.50;69.30
42245;DHT22;27912;51.828;5.688;2022-08-03T12:08:38;30.50;68.40
42245;DHT22;27912;51.828;5.688;2022-08-03T12:11:06;30.60;68.70
42245;DHT22;27912;51.828;5.688;2022-08-03T12:13:36;30.60;68.20
42245;DHT22;27912;51.828;5.688;2022-08-03T12:16:03;30.60;67.70
42245;DHT22;27912;51.828;5.688;2022-08-03T12:18:28;30.60;67.20
42245;DHT22;27912;51.828;5.688;2022-08-03T12:21:04;30.60;67.80
42245;DHT22;27912;51.828;5.688;2022-08-03T12:23:30;30.70;67.30
42245;DHT22;27912;51.828;5.688;2022-08-03T12:26:02;30.70;66.70
42245;DHT22;27912;51.828;5.688;2022-08-03T12:28:27;30.90;66.20
42245;DHT22;27912;51.828;5.688;2022-08-03T12:30:53;31.10;66.00
42245;DHT22;27912;51.828;5.688;2022-08-03T12:33:24;31.10;65.90
42245;DHT22;27912;51.828;5.688;2022-08-03T12:36:11;31.10;65.40
42245;DHT22;27912;51.828;5.688;2022-08-03T12:38:37;31.10;65.00
42245;DHT22;27912;51.828;5.688;2022-08-03T12:41:05;31.00;65.20
42245;DHT22;27912;51.828;5.688;2022-08-03T12:43:33;31.00;65.20
42245;DHT22;27912;51.828;5.688;2022-08-03T12:46:08;31.10;65.50
42245;DHT22;27912;51.828;5.688;2022-08-03T12:48:34;31.10;65.60
42245;DHT22;27912;51.828;5.688;2022-08-03T12:51:08;31.10;65.10
42245;DHT22;27912;51.828;5.688;2022-08-03T12:53:34;31.10;65.50
42245;DHT22;27912;51.828;5.688;2022-08-03T12:56:04;31.20;65.40
42245;DHT22;27912;51.828;5.688;2022-08-03T12:58:31;31.10;65.30
42245;DHT22;27912;51.828;5.688;2022-08-03T13:00:57;31.20;65.90
42245;DHT22;27912;51.828;5.688;2022-08-03T13:03:23;31.20;65.50
42245;DHT22;27912;51.828;5.688;2022-08-03T13:05:49;31.20;65.70
42245;DHT22;27912;51.828;5.688;2022-08-03T13:08:23;31.20;65.70
42245;DHT22;27912;51.828;5.688;2022-08-03T13:10:49;31.20;65.50
42245;DHT22;27912;51.828;5.688;2022-08-03T13:13:14;31.20;65.70
42245;DHT22;27912;51.828;5.688;2022-08-03T13:15:48;31.20;65.50
42245;DHT22;27912;51.828;5.688;2022-08-03T13:18:17;31.40;65.70
42245;DHT22;27912;51.828;5.688;2022-08-03T13:20:43;31.40;65.30
42245;DHT22;27912;51.828;5.688;2022-08-03T13:23:09;31.30;65.60
42245;DHT22;27912;51.828;5.688;2022-08-03T13:25:34;31.30;66.10
42245;DHT22;27912;51.828;5.688;2022-08-03T13:28:00;31.40;66.30
42245;DHT22;27912;51.828;5.688;2022-08-03T13:30:25;31.50;65.80
42245;DHT22;27912;51.828;5.688;2022-08-03T13:32:51;31.50;65.70
42245;DHT22;27912;51.828;5.688;2022-08-03T13:35:16;31.50;66.00
42245;DHT22;27912;51.828;5.688;2022-08-03T13:37:42;31.60;66.10
42245;DHT22;27912;51.828;5.688;2022-08-03T13:40:07;31.60;67.10
42245;DHT22;27912;51.828;5.688;2022-08-03T13:42:34;31.70;66.80
42245;DHT22;27912;51.828;5.688;2022-08-03T13:45:00;31.70;66.50
42245;DHT22;27912;51.828;5.688;2022-08-03T13:47:26;31.70;65.90
42245;DHT22;27912;51.828;5.688;2022-08-03T13:49:52;31.70;66.00
42245;DHT22;27912;51.828;5.688;2022-08-03T13:52:18;31.70;65.80
42245;DHT22;27912;51.828;5.688;2022-08-03T13:54:44;31.60;66.20
42245;DHT22;27912;51.828;5.688;2022-08-03T13:57:10;31.60;65.70
42245;DHT22;27912;51.828;5.688;2022-08-03T13:59:36;31.50;66.20
42245;DHT22;27912;51.828;5.688;2022-08-03T14:02:03;31.50;66.30
42245;DHT22;27912;51.828;5.688;2022-08-03T14:04:28;31.60;66.00
42245;DHT22;27912;51.828;5.688;2022-08-03T14:06:56;31.60;66.00
42245;DHT22;27912;51.828;5.688;2022-08-03T14:09:22;31.70;66.10
42245;DHT22;27912;51.828;5.688;2022-08-03T14:11:47;31.70;65.60
42245;DHT22;27912;51.828;5.688;2022-08-03T14:14:13;31.70;65.90
42245;DHT22;27912;51.828;5.688;2022-08-03T14:16:39;31.80;67.20
42245;DHT22;27912;51.828;5.688;2022-08-03T14:19:05;32.00;66.40
42245;DHT22;27912;51.828;5.688;2022-08-03T14:21:32;32.00;65.70
42245;DHT22;27912;51.828;5.688;2022-08-03T14:23:58;32.00;65.80
42245;DHT22;27912;51.828;5.688;2022-08-03T14:26:23;32.10;65.70
42245;DHT22;27912;51.828;5.688;2022-08-03T14:28:49;32.10;65.90
42245;DHT22;27912;51.828;5.688;2022-08-03T14:31:15;32.10;65.40
42245;DHT22;27912;51.828;5.688;2022-08-03T14:33:40;32.20;65.50
42245;DHT22;27912;51.828;5.688;2022-08-03T14:36:06;32.30;65.30
42245;DHT22;27912;51.828;5.688;2022-08-03T14:38:31;32.30;64.90
42245;DHT22;27912;51.828;5.688;2022-08-03T14:40:57;32.40;64.50
42245;DHT22;27912;51.828;5.688;2022-08-03T14:43:23;32.40;63.90
42245;DHT22;27912;51.828;5.688;2022-08-03T14:45:51;32.50;64.60
42245;DHT22;27912;51.828;5.688;2022-08-03T14:48:25;32.60;64.50
42245;DHT22;27912;51.828;5.688;2022-08-03T14:50:56;32.70;64.00
42245;DHT22;27912;51.828;5.688;2022-08-03T14:53:22;32.90;63.80
42245;DHT22;27912;51.828;5.688;2022-08-03T14:55:48;33.00;63.80
42245;DHT22;27912;51.828;5.688;2022-08-03T14:58:14;33.00;63.40
42245;DHT22;27912;51.828;5.688;2022-08-03T15:00:40;32.90;63.40
42245;DHT22;27912;51.828;5.688;2022-08-03T15:03:05;32.90;63.50
42245;DHT22;27912;51.828;5.688;2022-08-03T15:05:31;32.90;63.20
42245;DHT22;27912;51.828;5.688;2022-08-03T15:07:57;32.90;63.70
42245;DHT22;27912;51.828;5.688;2022-08-03T15:10:22;32.90;63.20
42245;DHT22;27912;51.828;5.688;2022-08-03T15:12:48;33.00;63.10
42245;DHT22;27912;51.828;5.688;2022-08-03T15:15:14;33.10;62.40
42245;DHT22;27912;51.828;5.688;2022-08-03T15:17:39;33.10;62.30
42245;DHT22;27912;51.828;5.688;2022-08-03T15:20:05;33.20;62.50
42245;DHT22;27912;51.828;5.688;2022-08-03T15:22:33;33.30;62.20
42245;DHT22;27912;51.828;5.688;2022-08-03T15:25:00;33.30;62.20
42245;DHT22;27912;51.828;5.688;2022-08-03T15:27:25;33.40;62.00
42245;DHT22;27912;51.828;5.688;2022-08-03T15:29:51;33.70;61.80
42245;DHT22;27912;51.828;5.688;2022-08-03T15:32:17;33.90;61.50
42245;DHT22;27912;51.828;5.688;2022-08-03T15:34:43;34.10;61.30
42245;DHT22;27912;51.828;5.688;2022-08-03T15:37:10;34.40;60.50
42245;DHT22;27912;51.828;5.688;2022-08-03T15:39:36;34.60;60.00
42245;DHT22;27912;51.828;5.688;2022-08-03T15:42:01;34.50;59.60
42245;DHT22;27912;51.828;5.688;2022-08-03T15:44:27;34.40;59.70
42245;DHT22;27912;51.828;5.688;2022-08-03T15:46:53;34.30;59.60
42245;DHT22;27912;51.828;5.688;2022-08-03T15:49:18;34.40;59.30
42245;DHT22;27912;51.828;5.688;2022-08-03T15:51:45;34.50;59.50
42245;DHT22;27912;51.828;5.688;2022-08-03T15:54:11;35.00;59.30
42245;DHT22;27912;51.828;5.688;2022-08-03T15:56:37;35.60;58.10
42245;DHT22;27912;51.828;5.688;2022-08-03T15:59:02;36.30;57.30
42245;DHT22;27912;51.828;5.688;2022-08-03T16:01:29;37.00;55.90
42245;DHT22;27912;51.828;5.688;2022-08-03T16:03:55;37.40;54.90
42245;DHT22;27912;51.828;5.688;2022-08-03T16:06:21;37.70;54.10